TimeEDT,TemperatureF,Dew PointF,Humidity,Sea Level PressureIn,VisibilityMPH,Wind Direction,Wind SpeedMPH,Gust SpeedMPH,PrecipitationIn,Events,Conditions,WindDirDegrees,DateUTC
12:15 AM,39.2,35.6,87,30.29,10.0,SSE,5.8,-,N/A,,Clear,150,2012-10-09 04:15:00
12:55 AM,39.2,35.6,87,30.27,10.0,ESE,4.6,-,N/A,,Clear,120,2012-10-09 04:55:00
1:15 AM,39.2,35.6,87,30.28,10.0,ESE,6.9,-,N/A,,Clear,120,2012-10-09 05:15:00
1:35 AM,37.4,35.6,93,30.28,10.0,SE,6.9,-,N/A,,Clear,140,2012-10-09 05:35:00
1:55 AM,37.4,35.6,93,30.28,10.0,SE,4.6,-,N/A,,Clear,140,2012-10-09 05:55:00
2:15 AM,37.4,35.6,93,30.28,10.0,SE,8.1,-,N/A,,Clear,130,2012-10-09 06:15:00
2:55 AM,37.4,35.6,93,30.27,10.0,SE,4.6,-,N/A,,Clear,130,2012-10-09 06:55:00
3:15 AM,35.6,35.6,100,30.27,10.0,SSE,4.6,-,N/A,,Clear,150,2012-10-09 07:15:00
3:55 AM,37.4,35.6,93,30.27,10.0,SE,6.9,-,N/A,,Clear,130,2012-10-09 07:55:00
4:15 AM,37.4,35.6,93,30.27,10.0,SE,6.9,-,N/A,,Clear,130,2012-10-09 08:15:00
4:35 AM,37.4,35.6,93,30.28,10.0,ESE,9.2,-,N/A,,Clear,120,2012-10-09 08:35:00
4:55 AM,37.4,35.6,93,30.28,10.0,SE,8.1,-,N/A,,Partly Cloudy,130,2012-10-09 08:55:00
5:15 AM,37.4,35.6,93,30.28,10.0,SE,5.8,-,N/A,,Partly Cloudy,130,2012-10-09 09:15:00
5:35 AM,37.4,35.6,93,30.28,10.0,SE,5.8,-,N/A,,Clear,140,2012-10-09 09:35:00
5:55 AM,39.2,37.4,93,30.27,10.0,SE,5.8,-,N/A,,Clear,130,2012-10-09 09:55:00
6:15 AM,39.2,37.4,93,30.27,10.0,SE,6.9,-,N/A,,Mostly Cloudy,130,2012-10-09 10:15:00
6:55 AM,41.0,37.4,87,30.27,10.0,Calm,Calm,-,N/A,,Mostly Cloudy,0,2012-10-09 10:55:00
7:15 AM,41.0,37.4,87,30.27,10.0,Calm,Calm,-,N/A,,Overcast,0,2012-10-09 11:15:00
7:35 AM,41.0,39.2,93,30.27,10.0,SSE,3.5,-,N/A,,Overcast,150,2012-10-09 11:35:00
7:55 AM,42.8,39.2,87,30.27,10.0,SSE,3.5,-,N/A,,Overcast,160,2012-10-09 11:55:00
8:15 AM,44.6,39.2,81,30.28,10.0,South,3.5,-,N/A,,Overcast,180,2012-10-09 12:15:00
8:35 AM,44.6,39.2,81,30.27,10.0,SSE,10.4,-,N/A,,Overcast,160,2012-10-09 12:35:00
8:55 AM,46.4,41.0,81,30.27,10.0,SE,9.2,-,N/A,,Overcast,140,2012-10-09 12:55:00
9:15 AM,48.2,41.0,76,30.27,10.0,SE,9.2,-,N/A,,Overcast,140,2012-10-09 13:15:00
9:35 AM,50.0,42.8,76,30.27,10.0,SE,15.0,19.6,N/A,,Mostly Cloudy,140,2012-10-09 13:35:00
9:55 AM,48.2,42.8,82,30.27,10.0,SSE,13.8,18.4,N/A,,Mostly Cloudy,150,2012-10-09 13:55:00
10:15 AM,50.0,42.8,76,30.27,10.0,SE,13.8,-,N/A,,Overcast,130,2012-10-09 14:15:00
10:35 AM,50.0,42.8,76,30.26,10.0,ESE,16.1,20.7,N/A,,Overcast,120,2012-10-09 14:35:00
10:55 AM,50.0,42.8,76,30.26,10.0,SE,16.1,21.9,N/A,,Overcast,130,2012-10-09 14:55:00
11:15 AM,51.8,42.8,71,30.26,10.0,SE,18.4,24.2,N/A,,Overcast,130,2012-10-09 15:15:00
11:35 AM,51.8,42.8,71,30.26,10.0,SE,19.6,24.2,N/A,,Overcast,140,2012-10-09 15:35:00
11:55 AM,51.8,42.8,71,30.25,10.0,ESE,15.0,23.0,N/A,,Overcast,120,2012-10-09 15:55:00
12:15 PM,51.8,42.8,71,30.24,10.0,SE,17.3,20.7,N/A,,Overcast,130,2012-10-09 16:15:00
12:35 PM,53.6,42.8,67,30.23,10.0,SE,16.1,20.7,N/A,,Overcast,130,2012-10-09 16:35:00
1:15 PM,53.6,42.8,67,30.21,10.0,SE,13.8,-,N/A,,Overcast,130,2012-10-09 17:15:00
1:35 PM,53.6,42.8,67,30.20,10.0,ESE,15.0,20.7,N/A,,Overcast,120,2012-10-09 17:35:00
1:55 PM,53.6,42.8,67,30.20,10.0,SE,16.1,20.7,N/A,,Overcast,130,2012-10-09 17:55:00
2:15 PM,53.6,42.8,67,30.19,10.0,SE,13.8,19.6,N/A,,Overcast,130,2012-10-09 18:15:00
2:55 PM,53.6,42.8,67,30.19,10.0,ESE,13.8,-,N/A,,Overcast,120,2012-10-09 18:55:00
3:15 PM,53.6,42.8,67,30.18,10.0,SE,13.8,19.6,N/A,,Overcast,130,2012-10-09 19:15:00
3:35 PM,53.6,42.8,67,30.18,10.0,SE,17.3,-,N/A,,Overcast,140,2012-10-09 19:35:00
3:55 PM,53.6,42.8,67,30.18,10.0,SSE,15.0,18.4,N/A,,Overcast,150,2012-10-09 19:55:00
4:15 PM,53.6,42.8,67,30.17,10.0,SSE,15.0,19.6,N/A,,Overcast,160,2012-10-09 20:15:00
4:35 PM,51.8,42.8,71,30.17,10.0,SE,11.5,-,N/A,,Overcast,140,2012-10-09 20:35:00
4:55 PM,51.8,42.8,71,30.18,10.0,SE,9.2,-,N/A,,Overcast,140,2012-10-09 20:55:00
5:15 PM,51.8,42.8,71,30.17,10.0,ESE,11.5,-,N/A,,Mostly Cloudy,120,2012-10-09 21:15:00
5:35 PM,51.8,42.8,71,30.17,10.0,SSE,5.8,-,N/A,,Overcast,160,2012-10-09 21:35:00
5:55 PM,51.8,42.8,71,30.16,10.0,South,6.9,-,N/A,,Overcast,180,2012-10-09 21:55:00
6:15 PM,51.8,42.8,71,30.16,10.0,SSE,8.1,-,N/A,,Mostly Cloudy,160,2012-10-09 22:15:00
6:35 PM,50.0,42.8,76,30.16,10.0,SSE,9.2,-,N/A,,Mostly Cloudy,160,2012-10-09 22:35:00
6:55 PM,50.0,44.6,82,30.16,10.0,SSW,5.8,-,N/A,,Overcast,200,2012-10-09 22:55:00
7:15 PM,50.0,44.6,82,30.15,10.0,SE,5.8,-,N/A,,Overcast,140,2012-10-09 23:15:00
7:35 PM,50.0,42.8,76,30.15,10.0,SSE,8.1,-,N/A,,Overcast,150,2012-10-09 23:35:00
7:55 PM,50.0,44.6,82,30.15,10.0,South,6.9,-,N/A,,Overcast,170,2012-10-09 23:55:00
8:15 PM,50.0,44.6,82,30.15,10.0,South,9.2,-,N/A,,Overcast,180,2012-10-10 00:15:00
8:35 PM,50.0,44.6,82,30.15,10.0,South,6.9,-,N/A,,Mostly Cloudy,170,2012-10-10 00:35:00
8:55 PM,50.0,44.6,82,30.14,10.0,South,6.9,-,N/A,,Overcast,180,2012-10-10 00:55:00
9:15 PM,50.0,44.6,82,30.14,10.0,SE,11.5,-,N/A,,Overcast,140,2012-10-10 01:15:00
9:35 PM,50.0,44.6,82,30.14,10.0,SSE,8.1,-,N/A,,Overcast,150,2012-10-10 01:35:00
9:55 PM,50.0,42.8,76,30.13,10.0,SSE,8.1,-,N/A,,Overcast,160,2012-10-10 01:55:00
10:35 PM,50.0,44.6,82,30.12,10.0,South,8.1,-,N/A,,Overcast,190,2012-10-10 02:35:00
10:55 PM,50.0,44.6,82,30.12,10.0,SSE,11.5,-,N/A,,Overcast,150,2012-10-10 02:55:00
11:15 PM,50.0,44.6,82,30.11,10.0,SSE,9.2,-,N/A,,Overcast,150,2012-10-10 03:15:00
11:35 PM,50.0,44.6,82,30.11,10.0,SSE,9.2,18.4,N/A,,Overcast,150,2012-10-10 03:35:00
11:55 PM,50.0,44.6,82,30.11,10.0,SE,10.4,-,N/A,,Overcast,140,2012-10-10 03:55:00